Time;durP1;ratioP1;P1;durP2;ratioP2;P2;SDS_P1;SDS_P2;PMS_P1;PMS_P2;Temp;Humidity;BMP_temperature;BMP_pressure;BME280_temperature;BME280_humidity;BME280_pressure;Samples;Min_cycle;Max_cycle;Signal;HPM_P1;HPM_P2
2023/10/10 00:00:47;;;;;;;12.27;5.43;;;;;;;;;;5011214;28;20171;-72
2023/10/10 00:03:12;;;;;;;11.37;5.40;;;;;;;;;;5008948;28;20269;-72
2023/10/10 00:05:39;;;;;;;7.77;4.70;;;;;;;;;;5014027;28;20327;-72
2023/10/10 00:08:05;;;;;;;10.80;5.43;;;;;;;;;;5009728;28;20181;-72
2023/10/10 00:10:31;;;;;;;17.13;8.20;;;;;;;;;;5011511;28;20180;-72
2023/10/10 00:12:56;;;;;;;12.33;7.63;;;;;;;;;;5005947;28;20281;-72
2023/10/10 00:15:32;;;;;;;12.67;6.53;;;;;;;;;;5008416;28;20261;-72
2023/10/10 00:18:03;;;;;;;23.20;10.17;;;;;;;;;;5023998;28;20359;-72
2023/10/10 00:20:41;;;;;;;12.43;6.67;;;;;;;;;;5011158;28;20182;-72
2023/10/10 00:23:10;;;;;;;13.70;6.87;;;;;;;;;;5007834;28;20215;-72
2023/10/10 00:25:37;;;;;;;17.77;7.10;;;;;;;;;;5006516;28;20234;-72
2023/10/10 00:28:17;;;;;;;13.87;6.63;;;;;;;;;;5016265;28;20178;-72
2023/10/10 00:30:45;;;;;;;38.57;14.40;;;;;;;;;;5005566;28;20210;-72
2023/10/10 00:33:14;;;;;;;13.73;7.33;;;;;;;;;;5004065;28;20197;-72
2023/10/10 00:35:42;;;;;;;23.13;9.63;;;;;;;;;;5010843;28;20202;-72
2023/10/10 00:38:09;;;;;;;17.83;8.93;;;;;;;;;;5006908;28;20234;-72
2023/10/10 00:40:39;;;;;;;26.80;9.77;;;;;;;;;;5010304;28;20184;-72
2023/10/10 00:43:11;;;;;;;26.33;10.57;;;;;;;;;;5009609;28;20184;-72
2023/10/10 00:45:37;;;;;;;21.57;9.40;;;;;;;;;;5015371;28;20202;-72
2023/10/10 00:48:02;;;;;;;16.13;7.97;;;;;;;;;;5008630;28;20193;-72
2023/10/10 00:50:28;;;;;;;22.20;10.90;;;;;;;;;;5014646;28;20170;-72
2023/10/10 00:52:56;;;;;;;18.57;9.50;;;;;;;;;;5006819;28;20182;-72
2023/10/10 00:55:24;;;;;;;12.67;6.77;;;;;;;;;;5004686;28;20204;-72
2023/10/10 00:57:55;;;;;;;12.17;7.77;;;;;;;;;;5007912;28;20190;-72
2023/10/10 01:00:25;;;;;;;13.57;7.20;;;;;;;;;;5009058;28;20221;-72
2023/10/10 01:03:01;;;;;;;10.73;5.67;;;;;;;;;;5007435;28;20206;-72
2023/10/10 01:05:39;;;;;;;10.87;5.73;;;;;;;;;;5006494;28;20209;-72
2023/10/10 01:08:05;;;;;;;11.27;5.87;;;;;;;;;;5009230;28;20173;-72
2023/10/10 01:10:32;;;;;;;8.83;5.37;;;;;;;;;;5014516;28;20241;-71
2023/10/10 01:12:58;;;;;;;10.93;4.87;;;;;;;;;;5010195;28;20176;-72
2023/10/10 01:15:34;;;;;;;9.73;6.70;;;;;;;;;;5007796;28;20187;-72
2023/10/10 01:18:00;;;;;;;9.23;5.03;;;;;;;;;;5010592;28;20208;-72
2023/10/10 01:20:34;;;;;;;8.67;4.97;;;;;;;;;;5014914;28;20232;-72
2023/10/10 01:23:00;;;;;;;10.70;5.93;;;;;;;;;;5000897;28;20189;-72
2023/10/10 01:28:05;;;;;;;11.77;5.47;;;;;;;;;;5008256;28;20205;-72
2023/10/10 01:33:15;;;;;;;11.37;5.03;;;;;;;;;;5008580;28;20193;-72
2023/10/10 01:35:42;;;;;;;10.10;4.87;;;;;;;;;;5011239;28;20259;-72
2023/10/10 01:38:13;;;;;;;11.40;5.20;;;;;;;;;;4995858;28;20232;-71
2023/10/10 01:40:39;;;;;;;9.80;5.00;;;;;;;;;;5010831;28;20172;-72
2023/10/10 01:43:10;;;;;;;9.73;4.87;;;;;;;;;;5005517;28;20174;-72
2023/10/10 01:45:41;;;;;;;10.73;5.90;;;;;;;;;;4999790;28;20206;-72
2023/10/10 01:48:08;;;;;;;9.77;5.30;;;;;;;;;;5009549;28;20172;-72
2023/10/10 01:50:36;;;;;;;12.70;5.40;;;;;;;;;;5000808;28;20184;-72
2023/10/10 01:53:05;;;;;;;9.33;4.90;;;;;;;;;;4999157;28;20164;-72
2023/10/10 01:55:30;;;;;;;8.27;5.20;;;;;;;;;;5005924;28;20181;-72
2023/10/10 01:58:01;;;;;;;9.17;5.40;;;;;;;;;;5005910;28;20253;-71
2023/10/10 02:00:27;;;;;;;8.13;4.80;;;;;;;;;;5004987;28;20187;-72
2023/10/10 02:02:56;;;;;;;12.13;5.83;;;;;;;;;;5011106;28;20187;-72
2023/10/10 02:08:04;;;;;;;10.00;5.80;;;;;;;;;;5009941;28;20174;-72
2023/10/10 02:10:32;;;;;;;8.97;4.70;;;;;;;;;;5014102;28;20176;-71
2023/10/10 02:12:59;;;;;;;10.67;5.97;;;;;;;;;;5014526;28;20199;-72
2023/10/10 02:15:27;;;;;;;11.57;5.47;;;;;;;;;;5005394;28;20204;-72
2023/10/10 02:17:54;;;;;;;11.37;5.20;;;;;;;;;;5007022;28;20176;-72
2023/10/10 02:22:53;;;;;;;10.13;5.30;;;;;;;;;;5002577;28;20163;-72
2023/10/10 02:25:37;;;;;;;12.27;5.47;;;;;;;;;;5007185;28;20581;-72
2023/10/10 02:28:09;;;;;;;9.10;4.77;;;;;;;;;;5003708;28;20199;-71
2023/10/10 02:30:34;;;;;;;10.80;6.57;;;;;;;;;;5005783;28;20206;-72
2023/10/10 02:33:17;;;;;;;10.10;5.17;;;;;;;;;;5008977;28;20187;-72
2023/10/10 02:35:55;;;;;;;9.90;5.43;;;;;;;;;;5005127;28;20191;-72
2023/10/10 02:38:31;;;;;;;11.87;5.33;;;;;;;;;;5010567;28;20183;-72
2023/10/10 02:41:12;;;;;;;9.03;5.37;;;;;;;;;;5005988;28;20179;-71
2023/10/10 02:43:46;;;;;;;10.00;4.60;;;;;;;;;;5021622;28;20187;-71
2023/10/10 02:46:17;;;;;;;12.10;5.67;;;;;;;;;;5001558;28;20216;-71
2023/10/10 02:48:43;;;;;;;10.80;5.00;;;;;;;;;;5005843;28;20184;-72
2023/10/10 02:51:08;;;;;;;9.40;5.00;;;;;;;;;;5010034;28;20186;-72
2023/10/10 02:53:33;;;;;;;10.10;5.60;;;;;;;;;;5007387;28;20195;-72
2023/10/10 02:56:01;;;;;;;10.13;5.20;;;;;;;;;;5022712;28;20218;-72
2023/10/10 02:58:28;;;;;;;8.00;4.77;;;;;;;;;;5008383;28;20177;-72
2023/10/10 03:00:57;;;;;;;7.20;4.37;;;;;;;;;;5022824;28;20215;-72
2023/10/10 03:03:24;;;;;;;8.10;4.70;;;;;;;;;;5006755;28;20191;-72
2023/10/10 03:05:54;;;;;;;8.97;5.43;;;;;;;;;;5008646;28;20269;-72
2023/10/10 03:11:01;;;;;;;9.23;4.73;;;;;;;;;;5005185;28;20187;-72
2023/10/10 03:14:13;;;;;;;7.67;4.60;;;;;;;;;;5007026;28;20243;-72
2023/10/10 03:27:00;;;;;;;8.63;4.77;;;;;;;;;;5001300;28;20219;-72
2023/10/10 03:29:46;;;;;;;7.43;4.63;;;;;;;;;;5009513;28;20186;-72
2023/10/10 03:34:56;;;;;;;8.37;5.30;;;;;;;;;;5006822;28;20173;-72
2023/10/10 03:37:29;;;;;;;8.10;5.70;;;;;;;;;;5006305;28;20183;-72
2023/10/10 03:39:55;;;;;;;9.30;4.63;;;;;;;;;;5009651;28;20180;-72
2023/10/10 05:23:47;;;;;;;11.47;6.00;;;;;;;;;;5010845;28;20202;-72
2023/10/10 05:26:19;;;;;;;10.60;5.97;;;;;;;;;;5009220;28;20224;-72
2023/10/10 05:28:45;;;;;;;11.20;6.57;;;;;;;;;;5011465;28;20184;-72
2023/10/10 05:31:11;;;;;;;12.13;5.47;;;;;;;;;;5009687;28;20258;-72
2023/10/10 05:33:37;;;;;;;11.27;7.00;;;;;;;;;;5010939;28;20174;-72
2023/10/10 05:36:08;;;;;;;16.90;7.47;;;;;;;;;;5013577;28;20176;-70
2023/10/10 05:38:36;;;;;;;11.07;6.13;;;;;;;;;;5009321;28;20172;-71
2023/10/10 05:41:02;;;;;;;10.47;4.87;;;;;;;;;;5010163;28;20176;-71
2023/10/10 05:43:33;;;;;;;11.13;5.80;;;;;;;;;;5007994;28;20249;-71
2023/10/10 05:45:59;;;;;;;13.20;6.17;;;;;;;;;;5009857;28;20205;-71
2023/10/10 05:48:26;;;;;;;9.93;5.67;;;;;;;;;;5007165;28;20187;-71
2023/10/10 05:50:51;;;;;;;11.73;5.20;;;;;;;;;;5007591;28;20168;-71
2023/10/10 05:53:16;;;;;;;9.50;4.67;;;;;;;;;;5006450;28;20188;-71
2023/10/10 05:55:43;;;;;;;9.87;4.57;;;;;;;;;;5007842;28;20187;-71
2023/10/10 05:58:08;;;;;;;9.00;4.63;;;;;;;;;;5011217;28;20188;-71
2023/10/10 06:00:36;;;;;;;14.43;5.53;;;;;;;;;;5004433;28;20186;-71
2023/10/10 06:03:08;;;;;;;8.13;4.20;;;;;;;;;;5008848;28;20180;-71
2023/10/10 06:05:33;;;;;;;9.83;5.17;;;;;;;;;;5021049;28;20204;-71
2023/10/10 06:07:59;;;;;;;13.33;5.20;;;;;;;;;;5009133;28;20200;-71
2023/10/10 06:10:28;;;;;;;9.63;5.00;;;;;;;;;;5019214;28;20183;-71
2023/10/10 06:12:57;;;;;;;8.33;4.67;;;;;;;;;;5006222;28;20166;-71
2023/10/10 06:15:22;;;;;;;10.97;4.57;;;;;;;;;;5000653;28;20171;-71
2023/10/10 06:18:05;;;;;;;10.40;4.83;;;;;;;;;;5009155;28;20184;-71
2023/10/10 06:20:31;;;;;;;17.70;5.43;;;;;;;;;;5011132;28;20287;-71
2023/10/10 06:22:56;;;;;;;11.20;4.53;;;;;;;;;;5005969;28;20208;-71
2023/10/10 06:25:23;;;;;;;8.50;4.90;;;;;;;;;;5009598;28;20247;-71
2023/10/10 06:27:54;;;;;;;15.40;5.17;;;;;;;;;;5008755;28;20196;-71
2023/10/10 06:30:24;;;;;;;10.63;5.40;;;;;;;;;;5012254;28;20200;-71
2023/10/10 06:32:49;;;;;;;12.73;5.03;;;;;;;;;;5007695;28;20177;-71
2023/10/10 06:37:43;;;;;;;11.73;5.20;;;;;;;;;;5009730;28;20178;-71
2023/10/10 06:40:09;;;;;;;9.80;4.93;;;;;;;;;;5012762;28;20180;-71
2023/10/10 06:42:37;;;;;;;10.07;5.17;;;;;;;;;;5008784;28;20181;-71
2023/10/10 06:45:11;;;;;;;9.93;4.77;;;;;;;;;;5010383;28;20181;-71
2023/10/10 06:47:39;;;;;;;9.90;4.77;;;;;;;;;;5008497;28;20203;-71
2023/10/10 06:50:11;;;;;;;9.03;4.17;;;;;;;;;;5013403;28;20167;-71
2023/10/10 06:52:36;;;;;;;14.33;5.57;;;;;;;;;;5008139;28;20249;-70
2023/10/10 06:55:10;;;;;;;13.83;4.87;;;;;;;;;;5009999;28;20314;-71
2023/10/10 06:57:35;;;;;;;10.33;4.43;;;;;;;;;;5010805;28;20173;-71
2023/10/10 07:00:20;;;;;;;13.90;4.83;;;;;;;;;;5008398;28;20180;-71
2023/10/10 07:02:49;;;;;;;13.47;4.47;;;;;;;;;;5016528;28;20181;-70
2023/10/10 07:05:15;;;;;;;10.27;5.00;;;;;;;;;;5011985;28;20181;-71
2023/10/10 07:07:41;;;;;;;17.70;4.63;;;;;;;;;;5013164;28;20165;-71
2023/10/10 07:10:09;;;;;;;9.17;4.90;;;;;;;;;;5012313;28;20513;-71
2023/10/10 07:12:35;;;;;;;9.73;3.97;;;;;;;;;;5014468;28;20270;-71
2023/10/10 07:15:01;;;;;;;9.70;4.30;;;;;;;;;;5012565;28;20314;-71
2023/10/10 07:17:30;;;;;;;9.57;4.40;;;;;;;;;;5013390;28;20202;-71
2023/10/10 07:22:28;;;;;;;13.70;5.10;;;;;;;;;;5011252;28;20270;-71
2023/10/10 07:25:06;;;;;;;12.43;4.73;;;;;;;;;;5017440;28;20305;-71
2023/10/10 07:27:32;;;;;;;13.13;5.23;;;;;;;;;;5013466;28;20203;-71
2023/10/10 07:32:29;;;;;;;13.70;4.77;;;;;;;;;;5014289;28;20222;-71
2023/10/10 07:34:54;;;;;;;11.00;4.63;;;;;;;;;;5011880;28;20179;-71
2023/10/10 07:37:22;;;;;;;17.20;6.00;;;;;;;;;;5015325;28;20182;-71
2023/10/10 07:42:51;;;;;;;11.77;4.57;;;;;;;;;;4994381;28;20274;-71
2023/10/10 07:45:26;;;;;;;13.53;4.23;;;;;;;;;;4993225;28;20266;-71
2023/10/10 07:50:26;;;;;;;9.03;4.37;;;;;;;;;;5013701;28;20167;-71
2023/10/10 07:52:52;;;;;;;12.13;4.00;;;;;;;;;;5011847;28;20176;-71
2023/10/10 07:55:17;;;;;;;16.93;4.80;;;;;;;;;;5015573;28;20185;-71
2023/10/10 07:57:59;;;;;;;11.57;4.17;;;;;;;;;;5009145;28;20182;-71
2023/10/10 08:00:38;;;;;;;12.53;4.23;;;;;;;;;;5009858;28;20167;-71
2023/10/10 08:03:05;;;;;;;9.70;4.73;;;;;;;;;;5014193;28;20167;-70
2023/10/10 08:05:30;;;;;;;9.37;4.00;;;;;;;;;;5014188;28;20187;-71
2023/10/10 08:07:56;;;;;;;13.30;4.77;;;;;;;;;;5011754;28;20171;-71
2023/10/10 08:10:35;;;;;;;11.97;4.57;;;;;;;;;;5012611;28;20180;-71
2023/10/10 08:13:00;;;;;;;10.37;4.33;;;;;;;;;;5015996;28;20225;-71
2023/10/10 08:15:26;;;;;;;14.07;5.33;;;;;;;;;;5007620;28;20183;-71
2023/10/10 08:17:53;;;;;;;10.73;4.60;;;;;;;;;;5008790;28;20177;-71
2023/10/10 08:21:06;;;;;;;14.03;5.17;;;;;;;;;;5005306;28;20202;-71
2023/10/10 08:23:24;;;;;;;9.47;4.63;;;;;;;;;;5008106;28;20266;-71
2023/10/10 08:25:49;;;;;;;14.10;5.63;;;;;;;;;;5010811;28;20265;-71
2023/10/10 08:28:14;;;;;;;11.63;4.97;;;;;;;;;;5009339;28;20203;-71
2023/10/10 08:30:39;;;;;;;15.17;5.63;;;;;;;;;;5004896;28;20270;-71
2023/10/10 08:33:05;;;;;;;17.03;5.47;;;;;;;;;;4999164;28;20173;-71
2023/10/10 08:35:30;;;;;;;10.73;5.47;;;;;;;;;;5009572;28;20183;-71
2023/10/10 08:37:58;;;;;;;17.97;5.87;;;;;;;;;;5008024;28;20184;-71
2023/10/10 08:40:30;;;;;;;11.53;5.40;;;;;;;;;;5014364;28;20183;-71
2023/10/10 08:42:56;;;;;;;15.80;5.77;;;;;;;;;;5004197;28;20184;-71
2023/10/10 08:45:23;;;;;;;12.97;5.90;;;;;;;;;;5006791;28;20229;-71
2023/10/10 08:47:50;;;;;;;9.40;5.90;;;;;;;;;;5010046;28;20208;-71
2023/10/10 08:50:16;;;;;;;9.97;5.37;;;;;;;;;;5025892;28;20199;-71
2023/10/10 08:52:41;;;;;;;12.87;5.83;;;;;;;;;;5023708;28;20184;-71
2023/10/10 08:55:10;;;;;;;12.53;6.53;;;;;;;;;;5010720;28;20187;-71
2023/10/10 08:57:38;;;;;;;12.83;6.00;;;;;;;;;;5009163;28;20179;-71
2023/10/10 09:00:06;;;;;;;11.23;5.13;;;;;;;;;;5011400;28;20191;-71
2023/10/10 09:02:33;;;;;;;11.70;5.00;;;;;;;;;;5009659;28;20188;-71
2023/10/10 09:04:58;;;;;;;11.40;6.10;;;;;;;;;;5014275;28;20181;-71
2023/10/10 09:07:28;;;;;;;13.57;6.27;;;;;;;;;;5011044;28;20206;-71
2023/10/10 09:10:06;;;;;;;12.73;5.93;;;;;;;;;;5011252;28;20310;-71
2023/10/10 09:12:52;;;;;;;13.17;6.13;;;;;;;;;;5009560;28;20227;-71
2023/10/10 09:15:18;;;;;;;12.77;5.47;;;;;;;;;;5009406;28;20201;-71
2023/10/10 09:17:45;;;;;;;9.90;5.53;;;;;;;;;;5010757;28;20181;-71
2023/10/10 09:20:22;;;;;;;14.27;5.80;;;;;;;;;;5009280;28;20296;-71
2023/10/10 09:22:51;;;;;;;12.43;6.23;;;;;;;;;;5015299;28;20221;-71
2023/10/10 09:25:21;;;;;;;11.87;6.40;;;;;;;;;;5008756;28;20238;-71
2023/10/10 09:27:59;;;;;;;14.40;6.07;;;;;;;;;;5004379;28;20174;-71
2023/10/10 09:30:31;;;;;;;8.33;5.27;;;;;;;;;;5013322;28;20203;-71
2023/10/10 09:33:02;;;;;;;7.70;5.00;;;;;;;;;;5009817;28;20265;-71
2023/10/10 09:35:28;;;;;;;10.27;5.47;;;;;;;;;;5022987;28;20197;-71
2023/10/10 09:37:54;;;;;;;16.17;5.93;;;;;;;;;;5008799;28;20177;-71
2023/10/10 09:40:20;;;;;;;12.13;6.13;;;;;;;;;;5011193;28;20208;-71
2023/10/10 09:45:35;;;;;;;11.20;5.70;;;;;;;;;;5007492;28;20183;-71
2023/10/10 09:48:27;;;;;;;9.27;4.90;;;;;;;;;;5007834;28;20198;-71
2023/10/10 09:51:08;;;;;;;10.90;4.73;;;;;;;;;;5009908;28;20209;-71
2023/10/10 09:53:34;;;;;;;10.70;4.93;;;;;;;;;;4999660;28;20163;-71
2023/10/10 09:56:02;;;;;;;9.80;4.83;;;;;;;;;;5004796;28;20177;-71
2023/10/10 09:58:28;;;;;;;8.57;5.07;;;;;;;;;;5006923;28;20189;-71
2023/10/10 10:00:54;;;;;;;17.10;5.00;;;;;;;;;;5010417;28;20190;-71
2023/10/10 10:06:34;;;;;;;14.23;5.85;;;;;;;;;;5009556;28;20303;-71
2023/10/10 10:09:19;;;;;;;9.32;5.72;;;;;;;;;;5007781;28;20182;-71
2023/10/10 10:11:51;;;;;;;12.75;6.00;;;;;;;;;;5024805;28;20202;-71
2023/10/10 10:14:35;;;;;;;9.50;5.55;;;;;;;;;;5009042;28;20175;-71
2023/10/10 10:17:12;;;;;;;10.27;4.78;;;;;;;;;;5010063;28;20175;-71
2023/10/10 10:19:45;;;;;;;12.00;5.65;;;;;;;;;;5010093;28;20253;-71
2023/10/10 10:22:14;;;;;;;11.32;5.15;;;;;;;;;;5009530;28;20171;-71
2023/10/10 10:24:44;;;;;;;10.40;5.47;;;;;;;;;;5008586;28;20179;-71
2023/10/10 10:30:10;;;;;;;18.70;6.38;;;;;;;;;;5010824;28;20261;-72
2023/10/10 10:32:36;;;;;;;13.10;6.28;;;;;;;;;;5007882;28;20201;-71
2023/10/10 10:35:04;;;;;;;11.50;5.20;;;;;;;;;;5020183;28;20172;-71
2023/10/10 10:37:35;;;;;;;8.23;5.00;;;;;;;;;;5009592;28;20179;-71
2023/10/10 10:42:49;;;;;;;10.52;6.28;;;;;;;;;;5009864;28;20232;-71
2023/10/10 10:45:23;;;;;;;8.98;5.15;;;;;;;;;;5012613;28;20167;-72
2023/10/10 10:47:54;;;;;;;9.90;6.88;;;;;;;;;;5011820;28;20219;-71
2023/10/10 10:50:28;;;;;;;9.32;5.60;;;;;;;;;;5008165;28;20244;-72
2023/10/10 10:52:57;;;;;;;11.57;5.72;;;;;;;;;;5024776;28;20179;-71
2023/10/10 10:55:27;;;;;;;12.15;6.43;;;;;;;;;;5006880;28;20218;-71
2023/10/10 10:58:05;;;;;;;10.05;6.55;;;;;;;;;;5006868;28;20182;-71
2023/10/10 11:00:56;;;;;;;13.95;6.18;;;;;;;;;;5008398;28;20172;-72
2023/10/10 11:03:32;;;;;;;11.60;7.03;;;;;;;;;;5008344;28;20221;-72
2023/10/10 11:05:57;;;;;;;12.48;6.85;;;;;;;;;;5010696;28;20211;-71
2023/10/10 11:08:52;;;;;;;10.88;7.28;;;;;;;;;;5009078;28;20258;-72
2023/10/10 11:11:26;;;;;;;10.95;6.78;;;;;;;;;;5010597;28;20186;-71
2023/10/10 11:13:54;;;;;;;10.55;7.13;;;;;;;;;;5010969;28;20175;-71
2023/10/10 11:16:23;;;;;;;11.60;6.85;;;;;;;;;;5006292;28;20172;-72
2023/10/10 11:18:57;;;;;;;11.00;7.82;;;;;;;;;;5020323;28;20202;-72
2023/10/10 11:21:27;;;;;;;11.98;7.32;;;;;;;;;;5002687;28;20176;-72
2023/10/10 11:23:53;;;;;;;11.20;6.32;;;;;;;;;;5005890;28;20180;-72
2023/10/10 11:26:19;;;;;;;8.90;5.93;;;;;;;;;;5008152;28;20229;-71
2023/10/10 11:28:47;;;;;;;10.43;6.22;;;;;;;;;;5009535;28;20176;-71
2023/10/10 11:31:14;;;;;;;15.55;7.50;;;;;;;;;;5005408;28;20211;-72
2023/10/10 11:33:48;;;;;;;9.02;6.60;;;;;;;;;;5003935;28;20258;-72
2023/10/10 11:36:21;;;;;;;17.25;7.60;;;;;;;;;;5005655;28;20263;-72
2023/10/10 11:38:55;;;;;;;11.88;7.68;;;;;;;;;;5006349;28;20187;-72
2023/10/10 11:41:30;;;;;;;11.32;6.85;;;;;;;;;;5000930;28;20186;-72
2023/10/10 11:43:56;;;;;;;9.02;5.75;;;;;;;;;;5007362;28;20251;-71
2023/10/10 11:46:22;;;;;;;9.70;6.97;;;;;;;;;;5007967;28;20203;-71
2023/10/10 11:48:47;;;;;;;8.98;6.18;;;;;;;;;;5003558;28;20178;-72
2023/10/10 11:51:14;;;;;;;10.98;6.75;;;;;;;;;;5011183;28;20176;-71
2023/10/10 11:53:39;;;;;;;12.45;5.93;;;;;;;;;;5010248;28;20163;-72
2023/10/10 11:56:11;;;;;;;10.98;7.13;;;;;;;;;;5009426;28;20242;-72
2023/10/10 11:58:36;;;;;;;11.43;7.10;;;;;;;;;;5009169;28;20184;-72
2023/10/10 12:01:09;;;;;;;12.95;6.57;;;;;;;;;;5006192;28;20252;-72
2023/10/10 12:06:00;;;;;;;9.35;5.97;;;;;;;;;;5010821;28;20215;-72
2023/10/10 12:08:26;;;;;;;11.77;6.25;;;;;;;;;;5008997;28;20226;-72
2023/10/10 12:11:38;;;;;;;8.50;5.60;;;;;;;;;;5008649;28;20179;-72
2023/10/10 12:13:44;;;;;;;11.25;6.53;;;;;;;;;;5008026;28;20191;-72
2023/10/10 12:16:12;;;;;;;9.48;6.25;;;;;;;;;;5010862;28;20183;-72
2023/10/10 12:18:50;;;;;;;10.20;6.03;;;;;;;;;;5011697;28;20179;-72
2023/10/10 12:21:20;;;;;;;10.95;6.53;;;;;;;;;;5012507;28;20179;-72
2023/10/10 12:23:49;;;;;;;12.05;5.85;;;;;;;;;;5005957;28;20274;-72
2023/10/10 12:26:14;;;;;;;11.60;5.60;;;;;;;;;;5011080;28;20231;-72
2023/10/10 12:28:39;;;;;;;10.20;5.85;;;;;;;;;;5010160;28;20178;-72
2023/10/10 12:31:08;;;;;;;11.70;5.88;;;;;;;;;;5010440;28;20192;-72
2023/10/10 12:33:36;;;;;;;9.15;5.60;;;;;;;;;;5003762;28;20180;-71
2023/10/10 12:36:07;;;;;;;13.63;6.00;;;;;;;;;;5010991;28;20179;-72
2023/10/10 12:38:33;;;;;;;12.98;6.22;;;;;;;;;;5004989;28;20186;-72
2023/10/10 12:40:58;;;;;;;8.82;5.65;;;;;;;;;;5011067;28;20183;-72
2023/10/10 12:43:24;;;;;;;9.68;5.38;;;;;;;;;;5011302;28;20180;-72
2023/10/10 12:45:51;;;;;;;9.02;5.57;;;;;;;;;;5014934;28;20205;-72
2023/10/10 12:48:20;;;;;;;10.52;5.53;;;;;;;;;;5011179;28;20172;-72
2023/10/10 12:50:46;;;;;;;11.40;5.28;;;;;;;;;;5008242;28;20207;-71
2023/10/10 12:53:15;;;;;;;9.00;6.05;;;;;;;;;;5006246;28;20171;-72
2023/10/10 12:55:48;;;;;;;7.93;5.07;;;;;;;;;;5004699;28;20203;-71
2023/10/10 12:58:15;;;;;;;10.38;5.25;;;;;;;;;;5008359;28;20176;-72
2023/10/10 13:00:42;;;;;;;11.15;5.93;;;;;;;;;;5008139;28;20203;-71
2023/10/10 13:03:07;;;;;;;10.82;5.65;;;;;;;;;;5001381;28;20175;-72
2023/10/10 13:05:33;;;;;;;7.90;4.55;;;;;;;;;;5007805;28;20184;-72
2023/10/10 13:07:59;;;;;;;9.43;5.03;;;;;;;;;;5004874;28;20167;-72
2023/10/10 13:10:30;;;;;;;9.10;4.75;;;;;;;;;;5007061;28;20264;-72
2023/10/10 13:12:55;;;;;;;5.60;4.30;;;;;;;;;;5010850;28;20208;-72
2023/10/10 13:15:46;;;;;;;13.10;5.03;;;;;;;;;;5005105;28;20183;-72
2023/10/10 13:18:19;;;;;;;19.25;6.28;;;;;;;;;;5007665;28;20167;-72
2023/10/10 13:20:44;;;;;;;11.68;5.05;;;;;;;;;;5006157;28;20194;-72
2023/10/10 13:23:09;;;;;;;11.38;5.07;;;;;;;;;;5005804;28;20180;-72
2023/10/10 13:25:38;;;;;;;11.45;4.70;;;;;;;;;;5005921;28;20231;-72
2023/10/10 13:28:17;;;;;;;8.43;4.95;;;;;;;;;;5009099;28;20175;-72
2023/10/10 13:30:42;;;;;;;20.80;6.50;;;;;;;;;;5008377;28;20207;-71
2023/10/10 13:33:07;;;;;;;8.27;4.22;;;;;;;;;;5015813;28;20175;-71
2023/10/10 13:35:37;;;;;;;7.32;4.55;;;;;;;;;;5005960;28;20164;-72
2023/10/10 13:38:06;;;;;;;8.48;5.40;;;;;;;;;;5008633;28;20176;-72
2023/10/10 13:40:37;;;;;;;8.32;4.47;;;;;;;;;;5007831;28;20183;-72
2023/10/10 13:43:08;;;;;;;10.23;4.30;;;;;;;;;;5006890;28;20179;-72
2023/10/10 13:45:34;;;;;;;9.23;4.40;;;;;;;;;;5003746;28;20179;-72
2023/10/10 13:48:00;;;;;;;12.82;4.90;;;;;;;;;;5007406;28;20183;-72
2023/10/10 13:50:31;;;;;;;8.13;4.03;;;;;;;;;;5004259;28;20184;-72
2023/10/10 13:52:56;;;;;;;8.25;4.15;;;;;;;;;;5009357;28;20198;-72
2023/10/10 13:55:23;;;;;;;6.45;4.38;;;;;;;;;;5003777;28;20176;-72
2023/10/10 13:57:49;;;;;;;6.13;4.00;;;;;;;;;;5021893;28;20187;-72
2023/10/10 14:00:52;;;;;;;8.05;4.30;;;;;;;;;;5009287;28;20187;-72
2023/10/10 14:03:06;;;;;;;5.65;4.07;;;;;;;;;;5005280;28;20259;-72
2023/10/10 14:06:00;;;;;;;7.50;4.78;;;;;;;;;;5013751;28;20257;-72
2023/10/10 14:08:25;;;;;;;9.43;4.10;;;;;;;;;;5025799;28;20206;-72
2023/10/10 14:10:53;;;;;;;9.48;4.80;;;;;;;;;;5008751;28;20183;-72
2023/10/10 14:13:18;;;;;;;7.65;3.97;;;;;;;;;;5007248;28;20204;-71
2023/10/10 14:15:57;;;;;;;7.32;4.20;;;;;;;;;;5017892;28;20199;-71
2023/10/10 14:18:29;;;;;;;7.45;4.03;;;;;;;;;;5007422;28;20183;-72
2023/10/10 14:20:55;;;;;;;4.85;4.22;;;;;;;;;;5009425;28;20172;-72
2023/10/10 14:23:21;;;;;;;8.52;4.65;;;;;;;;;;5006576;28;20398;-71
2023/10/10 14:25:47;;;;;;;11.05;4.88;;;;;;;;;;5006731;28;20215;-72
2023/10/10 14:28:16;;;;;;;8.65;4.57;;;;;;;;;;5008165;28;20329;-72
2023/10/10 14:30:42;;;;;;;9.20;4.18;;;;;;;;;;5006684;28;20403;-71
2023/10/10 14:33:08;;;;;;;7.45;4.10;;;;;;;;;;5004584;28;20314;-72
2023/10/10 14:35:34;;;;;;;6.57;3.85;;;;;;;;;;5009915;28;20175;-72
2023/10/10 14:38:01;;;;;;;8.90;4.18;;;;;;;;;;4998215;28;20183;-72
2023/10/10 14:40:26;;;;;;;9.68;4.50;;;;;;;;;;5008064;28;20176;-72
2023/10/10 14:42:54;;;;;;;8.95;4.78;;;;;;;;;;5004006;28;20182;-72
2023/10/10 14:45:24;;;;;;;7.70;4.20;;;;;;;;;;5009144;28;20180;-72
2023/10/10 14:47:51;;;;;;;9.10;4.63;;;;;;;;;;5014391;28;20203;-72
2023/10/10 14:50:23;;;;;;;10.50;4.93;;;;;;;;;;5015269;28;20166;-72
2023/10/10 14:52:48;;;;;;;9.95;4.68;;;;;;;;;;5005421;28;20185;-71
2023/10/10 14:55:30;;;;;;;7.50;4.35;;;;;;;;;;5006154;28;20202;-71
2023/10/10 14:57:55;;;;;;;7.50;4.25;;;;;;;;;;5009799;28;20206;-71
2023/10/10 15:00:25;;;;;;;6.85;4.28;;;;;;;;;;5004905;28;20323;-72
2023/10/10 15:02:53;;;;;;;7.45;4.10;;;;;;;;;;5011247;28;20194;-71
2023/10/10 15:05:19;;;;;;;5.35;3.70;;;;;;;;;;5010698;28;20179;-71
2023/10/10 15:07:45;;;;;;;4.68;3.17;;;;;;;;;;5006561;28;20226;-72
2023/10/10 15:10:10;;;;;;;5.50;3.30;;;;;;;;;;5007167;28;20180;-71
2023/10/10 15:12:36;;;;;;;7.65;4.05;;;;;;;;;;5006440;28;20226;-72
2023/10/10 15:15:01;;;;;;;6.85;4.03;;;;;;;;;;5005935;28;20207;-71
2023/10/10 15:17:27;;;;;;;6.10;4.20;;;;;;;;;;5006850;28;20330;-71
2023/10/10 15:19:52;;;;;;;6.88;3.78;;;;;;;;;;5004199;28;20183;-72
2023/10/10 15:22:18;;;;;;;7.28;3.72;;;;;;;;;;5006824;28;20175;-71
2023/10/10 15:24:49;;;;;;;10.95;4.55;;;;;;;;;;5002122;28;20176;-71
2023/10/10 15:27:15;;;;;;;8.50;4.38;;;;;;;;;;5016573;28;20203;-71
2023/10/10 15:29:42;;;;;;;5.65;3.75;;;;;;;;;;5007113;28;20179;-71
2023/10/10 15:32:07;;;;;;;6.15;3.85;;;;;;;;;;5010091;28;20229;-72
2023/10/10 15:34:32;;;;;;;6.55;3.97;;;;;;;;;;5010681;28;20203;-72
2023/10/10 15:37:00;;;;;;;5.70;3.42;;;;;;;;;;5021985;28;20270;-72
2023/10/10 15:39:25;;;;;;;5.60;3.63;;;;;;;;;;5013536;28;20253;-71
2023/10/10 15:41:50;;;;;;;9.30;4.85;;;;;;;;;;5013616;28;20180;-72
2023/10/10 15:44:15;;;;;;;6.68;4.10;;;;;;;;;;5015560;28;20190;-72
2023/10/10 15:46:43;;;;;;;6.50;4.43;;;;;;;;;;5007799;28;20232;-71
2023/10/10 15:49:09;;;;;;;15.13;7.05;;;;;;;;;;5008487;28;20171;-72
2023/10/10 15:51:38;;;;;;;6.95;4.45;;;;;;;;;;5009741;28;20541;-71
2023/10/10 15:54:08;;;;;;;5.70;4.53;;;;;;;;;;5013073;28;20179;-71
2023/10/10 15:56:33;;;;;;;9.65;4.25;;;;;;;;;;5012435;28;20183;-71
2023/10/10 15:59:00;;;;;;;11.13;5.07;;;;;;;;;;5009751;28;20267;-71
2023/10/10 16:01:29;;;;;;;12.73;4.57;;;;;;;;;;5008464;28;20183;-72
2023/10/10 16:03:59;;;;;;;8.10;4.25;;;;;;;;;;5008254;28;20964;-72
2023/10/10 16:06:25;;;;;;;7.68;3.78;;;;;;;;;;5012219;28;20203;-71
2023/10/10 16:08:51;;;;;;;10.88;4.47;;;;;;;;;;5009991;28;20209;-75
2023/10/10 16:11:17;;;;;;;8.63;3.90;;;;;;;;;;5012943;28;20183;-75
2023/10/10 16:13:42;;;;;;;7.85;4.38;;;;;;;;;;5010745;28;20267;-76
2023/10/10 16:16:08;;;;;;;6.80;4.32;;;;;;;;;;5011537;28;20179;-75
2023/10/10 16:18:36;;;;;;;9.40;5.10;;;;;;;;;;5012119;28;20254;-75
2023/10/10 16:21:03;;;;;;;7.60;3.97;;;;;;;;;;5020065;28;20183;-75
2023/10/10 16:23:30;;;;;;;9.07;4.38;;;;;;;;;;5020521;28;20184;-75
2023/10/10 16:25:56;;;;;;;7.57;4.03;;;;;;;;;;5009700;28;20230;-75
2023/10/10 16:28:22;;;;;;;8.43;4.05;;;;;;;;;;5011832;28;20179;-75
2023/10/10 16:30:48;;;;;;;5.93;4.20;;;;;;;;;;5012216;28;20199;-75
2023/10/10 16:33:13;;;;;;;7.35;3.70;;;;;;;;;;5009150;28;20221;-75
2023/10/10 16:35:41;;;;;;;7.82;4.35;;;;;;;;;;5011311;28;20258;-75
2023/10/10 16:38:06;;;;;;;8.30;4.10;;;;;;;;;;5011151;28;20172;-75
2023/10/10 16:40:31;;;;;;;13.07;4.47;;;;;;;;;;5012165;28;20267;-75
2023/10/10 16:42:57;;;;;;;12.23;4.70;;;;;;;;;;5011376;28;20180;-75
2023/10/10 16:45:22;;;;;;;14.73;4.93;;;;;;;;;;5009739;28;20270;-75
2023/10/10 16:47:49;;;;;;;8.70;4.57;;;;;;;;;;5004748;28;20238;-75
2023/10/10 16:50:15;;;;;;;10.52;3.80;;;;;;;;;;5009822;28;20178;-75
2023/10/10 16:52:40;;;;;;;10.80;4.72;;;;;;;;;;5008209;28;20183;-75
2023/10/10 16:55:10;;;;;;;15.25;4.72;;;;;;;;;;5009624;28;20197;-75
2023/10/10 16:57:38;;;;;;;9.20;4.55;;;;;;;;;;5008497;28;20469;-74
2023/10/10 17:00:11;;;;;;;10.63;4.35;;;;;;;;;;5008044;28;20172;-75
2023/10/10 17:02:38;;;;;;;5.90;3.58;;;;;;;;;;5006217;28;20195;-74
2023/10/10 17:05:05;;;;;;;9.35;4.68;;;;;;;;;;5010572;28;20202;-75
2023/10/10 17:07:30;;;;;;;12.47;4.40;;;;;;;;;;5010991;28;20208;-75
2023/10/10 17:09:56;;;;;;;8.37;4.17;;;;;;;;;;5001629;28;20182;-75
2023/10/10 17:12:21;;;;;;;12.10;4.93;;;;;;;;;;4996898;28;20179;-75
2023/10/10 17:14:47;;;;;;;7.57;4.53;;;;;;;;;;5004240;28;20174;-74
2023/10/10 17:17:13;;;;;;;8.43;5.10;;;;;;;;;;5007349;28;20186;-74
2023/10/10 17:19:38;;;;;;;8.80;3.80;;;;;;;;;;5009131;28;20183;-75
2023/10/10 17:22:03;;;;;;;10.90;4.67;;;;;;;;;;5008478;28;20175;-75